sensor_id;sensor_type;location;lat;lon;timestamp;temperature;humidity
59975;DHT22;62136;-35.664;-63.766;2022-11-15T00:01:13;25.20;42.20
59975;DHT22;62136;-35.664;-63.766;2022-11-15T00:03:41;25.20;42.30
59975;DHT22;62136;-35.664;-63.766;2022-11-15T00:06:09;25.20;42.60
59975;DHT22;62136;-35.664;-63.766;2022-11-15T00:08:36;25.20;42.70
59975;DHT22;62136;-35.664;-63.766;2022-11-15T00:11:03;25.20;42.70
59975;DHT22;62136;-35.664;-63.766;2022-11-15T00:13:30;25.20;43.00
59975;DHT22;62136;-35.664;-63.766;2022-11-15T00:15:59;25.20;43.00
59975;DHT22;62136;-35.664;-63.766;2022-11-15T00:18:26;25.20;43.10
59975;DHT22;62136;-35.664;-63.766;2022-11-15T00:20:53;25.20;43.40
59975;DHT22;62136;-35.664;-63.766;2022-11-15T00:23:20;25.20;43.50
59975;DHT22;62136;-35.664;-63.766;2022-11-15T00:25:54;25.20;43.70
59975;DHT22;62136;-35.664;-63.766;2022-11-15T00:28:21;25.20;43.70
59975;DHT22;62136;-35.664;-63.766;2022-11-15T00:30:48;25.20;44.00
59975;DHT22;62136;-35.664;-63.766;2022-11-15T00:33:15;25.20;44.30
59975;DHT22;62136;-35.664;-63.766;2022-11-15T00:35:42;25.20;44.40
59975;DHT22;62136;-35.664;-63.766;2022-11-15T00:38:09;25.20;44.80
59975;DHT22;62136;-35.664;-63.766;2022-11-15T00:40:37;25.20;45.10
59975;DHT22;62136;-35.664;-63.766;2022-11-15T00:43:04;25.20;45.30
59975;DHT22;62136;-35.664;-63.766;2022-11-15T00:45:31;25.20;45.60
59975;DHT22;62136;-35.664;-63.766;2022-11-15T00:47:57;25.10;45.70
59975;DHT22;62136;-35.664;-63.766;2022-11-15T00:50:25;25.10;45.80
59975;DHT22;62136;-35.664;-63.766;2022-11-15T00:52:52;25.10;46.30
59975;DHT22;62136;-35.664;-63.766;2022-11-15T00:55:19;25.10;46.30
59975;DHT22;62136;-35.664;-63.766;2022-11-15T00:57:47;25.10;46.60
59975;DHT22;62136;-35.664;-63.766;2022-11-15T01:00:14;25.10;47.30
59975;DHT22;62136;-35.664;-63.766;2022-11-15T01:02:41;25.10;47.30
59975;DHT22;62136;-35.664;-63.766;2022-11-15T01:05:08;25.00;47.40
59975;DHT22;62136;-35.664;-63.766;2022-11-15T01:07:35;25.10;47.50
59975;DHT22;62136;-35.664;-63.766;2022-11-15T01:10:03;25.00;48.20
59975;DHT22;62136;-35.664;-63.766;2022-11-15T01:12:31;25.00;47.90
59975;DHT22;62136;-35.664;-63.766;2022-11-15T01:14:58;25.00;48.10
59975;DHT22;62136;-35.664;-63.766;2022-11-15T01:17:25;24.90;47.20
59975;DHT22;62136;-35.664;-63.766;2022-11-15T01:19:52;24.90;47.80
59975;DHT22;62136;-35.664;-63.766;2022-11-15T01:22:19;24.90;48.20
59975;DHT22;62136;-35.664;-63.766;2022-11-15T01:24:46;24.90;48.20
59975;DHT22;62136;-35.664;-63.766;2022-11-15T01:27:13;24.80;48.20
59975;DHT22;62136;-35.664;-63.766;2022-11-15T01:29:40;24.90;48.20
59975;DHT22;62136;-35.664;-63.766;2022-11-15T01:32:08;24.80;48.30
59975;DHT22;62136;-35.664;-63.766;2022-11-15T01:34:35;24.80;48.20
59975;DHT22;62136;-35.664;-63.766;2022-11-15T01:37:02;24.80;48.20
59975;DHT22;62136;-35.664;-63.766;2022-11-15T01:39:29;24.80;48.10
59975;DHT22;62136;-35.664;-63.766;2022-11-15T01:41:56;24.70;48.10
59975;DHT22;62136;-35.664;-63.766;2022-11-15T01:44:41;24.70;48.10
59975;DHT22;62136;-35.664;-63.766;2022-11-15T01:47:43;24.70;48.20
59975;DHT22;62136;-35.664;-63.766;2022-11-15T01:50:17;24.70;48.20
59975;DHT22;62136;-35.664;-63.766;2022-11-15T01:52:47;24.60;48.20
59975;DHT22;62136;-35.664;-63.766;2022-11-15T01:55:28;24.60;48.20
59975;DHT22;62136;-35.664;-63.766;2022-11-15T01:57:59;24.60;48.20
59975;DHT22;62136;-35.664;-63.766;2022-11-15T02:00:28;24.60;48.30
59975;DHT22;62136;-35.664;-63.766;2022-11-15T02:02:56;24.50;48.20
59975;DHT22;62136;-35.664;-63.766;2022-11-15T02:05:23;24.50;48.20
59975;DHT22;62136;-35.664;-63.766;2022-11-15T02:07:50;24.50;48.20
59975;DHT22;62136;-35.664;-63.766;2022-11-15T02:10:20;24.50;48.30
59975;DHT22;62136;-35.664;-63.766;2022-11-15T02:12:51;24.50;48.20
59975;DHT22;62136;-35.664;-63.766;2022-11-15T02:15:18;24.50;48.30
59975;DHT22;62136;-35.664;-63.766;2022-11-15T02:18:19;24.50;48.30
59975;DHT22;62136;-35.664;-63.766;2022-11-15T02:21:05;24.50;48.30
59975;DHT22;62136;-35.664;-63.766;2022-11-15T02:24:11;24.40;48.20
59975;DHT22;62136;-35.664;-63.766;2022-11-15T02:32:31;24.40;48.30
59975;DHT22;62136;-35.664;-63.766;2022-11-15T02:38:01;24.30;48.20
59975;DHT22;62136;-35.664;-63.766;2022-11-15T02:43:29;24.30;48.20
59975;DHT22;62136;-35.664;-63.766;2022-11-15T02:46:52;24.30;48.30
59975;DHT22;62136;-35.664;-63.766;2022-11-15T02:49:52;24.30;48.30
59975;DHT22;62136;-35.664;-63.766;2022-11-15T02:52:24;24.20;48.30
59975;DHT22;62136;-35.664;-63.766;2022-11-15T02:54:59;24.20;48.40
59975;DHT22;62136;-35.664;-63.766;2022-11-15T02:58:36;24.20;48.40
59975;DHT22;62136;-35.664;-63.766;2022-11-15T03:07:01;24.10;48.40
59975;DHT22;62136;-35.664;-63.766;2022-11-15T03:09:40;24.10;48.30
59975;DHT22;62136;-35.664;-63.766;2022-11-15T03:12:23;24.10;48.40
59975;DHT22;62136;-35.664;-63.766;2022-11-15T03:14:56;24.10;48.40
59975;DHT22;62136;-35.664;-63.766;2022-11-15T03:17:34;24.10;48.50
59975;DHT22;62136;-35.664;-63.766;2022-11-15T03:20:18;24.10;48.50
59975;DHT22;62136;-35.664;-63.766;2022-11-15T03:22:47;24.10;48.50
59975;DHT22;62136;-35.664;-63.766;2022-11-15T03:25:19;24.00;48.40
59975;DHT22;62136;-35.664;-63.766;2022-11-15T03:27:53;24.10;48.50
59975;DHT22;62136;-35.664;-63.766;2022-11-15T03:30:22;24.00;48.50
59975;DHT22;62136;-35.664;-63.766;2022-11-15T03:32:57;24.00;48.50
59975;DHT22;62136;-35.664;-63.766;2022-11-15T03:35:30;24.00;48.50
59975;DHT22;62136;-35.664;-63.766;2022-11-15T03:38:14;24.00;48.50
59975;DHT22;62136;-35.664;-63.766;2022-11-15T03:43:41;23.90;48.60
59975;DHT22;62136;-35.664;-63.766;2022-11-15T03:47:02;23.90;48.60
59975;DHT22;62136;-35.664;-63.766;2022-11-15T03:49:11;23.90;48.60
59975;DHT22;62136;-35.664;-63.766;2022-11-15T03:51:43;23.90;48.70
59975;DHT22;62136;-35.664;-63.766;2022-11-15T03:54:12;23.90;48.70
59975;DHT22;62136;-35.664;-63.766;2022-11-15T03:56:40;23.80;48.60
59975;DHT22;62136;-35.664;-63.766;2022-11-15T03:59:07;23.80;48.60
59975;DHT22;62136;-35.664;-63.766;2022-11-15T04:01:37;23.90;48.70
59975;DHT22;62136;-35.664;-63.766;2022-11-15T04:04:04;23.80;48.70
59975;DHT22;62136;-35.664;-63.766;2022-11-15T04:06:31;23.80;48.70
59975;DHT22;62136;-35.664;-63.766;2022-11-15T04:08:58;23.80;48.70
59975;DHT22;62136;-35.664;-63.766;2022-11-15T04:11:25;23.80;48.80
59975;DHT22;62136;-35.664;-63.766;2022-11-15T04:13:52;23.80;48.70
59975;DHT22;62136;-35.664;-63.766;2022-11-15T04:16:19;23.80;48.80
59975;DHT22;62136;-35.664;-63.766;2022-11-15T04:18:46;23.80;48.80
59975;DHT22;62136;-35.664;-63.766;2022-11-15T04:21:32;23.70;48.70
59975;DHT22;62136;-35.664;-63.766;2022-11-15T04:24:18;23.70;48.80
59975;DHT22;62136;-35.664;-63.766;2022-11-15T04:26:45;23.70;48.80
59975;DHT22;62136;-35.664;-63.766;2022-11-15T04:29:15;23.70;48.80
59975;DHT22;62136;-35.664;-63.766;2022-11-15T04:32:05;23.70;48.80
59975;DHT22;62136;-35.664;-63.766;2022-11-15T04:34:39;23.70;48.90
59975;DHT22;62136;-35.664;-63.766;2022-11-15T04:37:06;23.60;48.90
59975;DHT22;62136;-35.664;-63.766;2022-11-15T04:39:42;23.60;48.90
59975;DHT22;62136;-35.664;-63.766;2022-11-15T04:42:10;23.60;48.90
59975;DHT22;62136;-35.664;-63.766;2022-11-15T04:44:37;23.60;48.80
59975;DHT22;62136;-35.664;-63.766;2022-11-15T04:47:05;23.60;48.90
59975;DHT22;62136;-35.664;-63.766;2022-11-15T04:49:32;23.60;49.00
59975;DHT22;62136;-35.664;-63.766;2022-11-15T04:51:59;23.50;48.90
59975;DHT22;62136;-35.664;-63.766;2022-11-15T04:54:26;23.60;48.90
59975;DHT22;62136;-35.664;-63.766;2022-11-15T04:56:53;23.50;49.40
59975;DHT22;62136;-35.664;-63.766;2022-11-15T04:59:20;23.50;48.90
59975;DHT22;62136;-35.664;-63.766;2022-11-15T05:01:47;23.50;49.00
59975;DHT22;62136;-35.664;-63.766;2022-11-15T05:04:14;23.50;48.90
59975;DHT22;62136;-35.664;-63.766;2022-11-15T05:06:51;23.50;48.90
59975;DHT22;62136;-35.664;-63.766;2022-11-15T05:09:19;23.50;49.10
59975;DHT22;62136;-35.664;-63.766;2022-11-15T05:11:46;23.50;49.00
59975;DHT22;62136;-35.664;-63.766;2022-11-15T05:14:14;23.50;49.00
59975;DHT22;62136;-35.664;-63.766;2022-11-15T05:16:41;23.40;49.00
59975;DHT22;62136;-35.664;-63.766;2022-11-15T05:19:09;23.40;49.00
59975;DHT22;62136;-35.664;-63.766;2022-11-15T05:21:36;23.40;49.30
59975;DHT22;62136;-35.664;-63.766;2022-11-15T05:24:03;23.40;49.00
59975;DHT22;62136;-35.664;-63.766;2022-11-15T05:26:31;23.40;49.00
59975;DHT22;62136;-35.664;-63.766;2022-11-15T05:28:59;23.30;49.00
59975;DHT22;62136;-35.664;-63.766;2022-11-15T05:31:27;23.40;49.10
59975;DHT22;62136;-35.664;-63.766;2022-11-15T05:33:55;23.30;49.00
59975;DHT22;62136;-35.664;-63.766;2022-11-15T05:36:27;23.30;49.00
59975;DHT22;62136;-35.664;-63.766;2022-11-15T05:38:56;23.30;49.00
59975;DHT22;62136;-35.664;-63.766;2022-11-15T05:41:30;23.30;49.10
59975;DHT22;62136;-35.664;-63.766;2022-11-15T05:43:59;23.30;49.00
59975;DHT22;62136;-35.664;-63.766;2022-11-15T05:46:28;23.30;49.10
59975;DHT22;62136;-35.664;-63.766;2022-11-15T05:48:56;23.30;49.10
59975;DHT22;62136;-35.664;-63.766;2022-11-15T05:51:24;23.20;49.10
59975;DHT22;62136;-35.664;-63.766;2022-11-15T05:53:57;23.20;49.10
59975;DHT22;62136;-35.664;-63.766;2022-11-15T05:56:25;23.20;49.10
59975;DHT22;62136;-35.664;-63.766;2022-11-15T05:58:56;23.20;49.10
59975;DHT22;62136;-35.664;-63.766;2022-11-15T06:01:25;23.20;49.20
59975;DHT22;62136;-35.664;-63.766;2022-11-15T06:03:52;23.20;49.10
59975;DHT22;62136;-35.664;-63.766;2022-11-15T06:06:19;23.20;49.20
59975;DHT22;62136;-35.664;-63.766;2022-11-15T06:08:46;23.20;49.20
59975;DHT22;62136;-35.664;-63.766;2022-11-15T06:11:14;23.10;49.10
59975;DHT22;62136;-35.664;-63.766;2022-11-15T06:13:41;23.20;49.20
59975;DHT22;62136;-35.664;-63.766;2022-11-15T06:16:08;23.10;49.20
59975;DHT22;62136;-35.664;-63.766;2022-11-15T06:18:36;23.10;49.10
59975;DHT22;62136;-35.664;-63.766;2022-11-15T06:21:03;23.10;49.20
59975;DHT22;62136;-35.664;-63.766;2022-11-15T06:23:34;23.10;49.30
59975;DHT22;62136;-35.664;-63.766;2022-11-15T06:26:02;23.10;49.20
59975;DHT22;62136;-35.664;-63.766;2022-11-15T06:28:31;23.10;49.70
59975;DHT22;62136;-35.664;-63.766;2022-11-15T06:31:09;23.10;49.20
59975;DHT22;62136;-35.664;-63.766;2022-11-15T06:33:40;23.00;49.20
59975;DHT22;62136;-35.664;-63.766;2022-11-15T06:36:09;23.10;49.20
59975;DHT22;62136;-35.664;-63.766;2022-11-15T06:38:37;23.00;49.20
59975;DHT22;62136;-35.664;-63.766;2022-11-15T06:41:09;23.00;49.20
59975;DHT22;62136;-35.664;-63.766;2022-11-15T06:43:37;23.00;49.30
59975;DHT22;62136;-35.664;-63.766;2022-11-15T06:46:05;23.00;49.20
59975;DHT22;62136;-35.664;-63.766;2022-11-15T06:48:33;23.00;49.30
59975;DHT22;62136;-35.664;-63.766;2022-11-15T06:51:02;23.00;49.20
59975;DHT22;62136;-35.664;-63.766;2022-11-15T06:53:30;23.00;49.20
59975;DHT22;62136;-35.664;-63.766;2022-11-15T06:56:05;23.00;49.40
59975;DHT22;62136;-35.664;-63.766;2022-11-15T06:58:33;22.90;49.30
59975;DHT22;62136;-35.664;-63.766;2022-11-15T07:01:17;22.90;49.30
59975;DHT22;62136;-35.664;-63.766;2022-11-15T07:03:44;22.90;49.30
59975;DHT22;62136;-35.664;-63.766;2022-11-15T07:06:12;22.90;49.30
59975;DHT22;62136;-35.664;-63.766;2022-11-15T07:08:39;22.90;49.40
59975;DHT22;62136;-35.664;-63.766;2022-11-15T07:11:08;22.90;49.40
59975;DHT22;62136;-35.664;-63.766;2022-11-15T07:13:36;22.90;49.50
59975;DHT22;62136;-35.664;-63.766;2022-11-15T07:16:08;22.90;49.40
59975;DHT22;62136;-35.664;-63.766;2022-11-15T07:18:39;22.80;49.30
59975;DHT22;62136;-35.664;-63.766;2022-11-15T07:21:09;22.80;49.20
59975;DHT22;62136;-35.664;-63.766;2022-11-15T07:23:38;22.80;49.20
59975;DHT22;62136;-35.664;-63.766;2022-11-15T07:26:06;22.80;49.30
59975;DHT22;62136;-35.664;-63.766;2022-11-15T07:28:34;22.80;49.40
59975;DHT22;62136;-35.664;-63.766;2022-11-15T07:31:08;22.80;49.50
59975;DHT22;62136;-35.664;-63.766;2022-11-15T07:33:36;22.80;49.50
59975;DHT22;62136;-35.664;-63.766;2022-11-15T07:36:04;22.80;49.40
59975;DHT22;62136;-35.664;-63.766;2022-11-15T07:38:33;22.70;49.30
59975;DHT22;62136;-35.664;-63.766;2022-11-15T07:41:02;22.70;49.40
59975;DHT22;62136;-35.664;-63.766;2022-11-15T07:43:29;22.70;49.50
59975;DHT22;62136;-35.664;-63.766;2022-11-15T07:45:59;22.70;49.50
59975;DHT22;62136;-35.664;-63.766;2022-11-15T07:48:31;22.70;49.50
59975;DHT22;62136;-35.664;-63.766;2022-11-15T07:50:58;22.70;49.60
59975;DHT22;62136;-35.664;-63.766;2022-11-15T07:53:24;22.70;49.50
59975;DHT22;62136;-35.664;-63.766;2022-11-15T07:55:52;22.70;49.60
59975;DHT22;62136;-35.664;-63.766;2022-11-15T07:58:20;22.60;49.50
59975;DHT22;62136;-35.664;-63.766;2022-11-15T08:00:47;22.60;49.40
59975;DHT22;62136;-35.664;-63.766;2022-11-15T08:03:15;22.60;49.40
59975;DHT22;62136;-35.664;-63.766;2022-11-15T08:05:43;22.60;49.70
59975;DHT22;62136;-35.664;-63.766;2022-11-15T08:08:16;22.60;49.60
59975;DHT22;62136;-35.664;-63.766;2022-11-15T08:10:43;22.50;49.50
59975;DHT22;62136;-35.664;-63.766;2022-11-15T08:15:36;22.50;49.50
59975;DHT22;62136;-35.664;-63.766;2022-11-15T08:18:11;22.50;49.70
59975;DHT22;62136;-35.664;-63.766;2022-11-15T08:20:38;22.50;49.60
59975;DHT22;62136;-35.664;-63.766;2022-11-15T08:23:05;22.50;49.70
59975;DHT22;62136;-35.664;-63.766;2022-11-15T08:25:34;22.40;49.70
59975;DHT22;62136;-35.664;-63.766;2022-11-15T08:28:04;22.40;49.70
59975;DHT22;62136;-35.664;-63.766;2022-11-15T08:30:35;22.40;49.70
59975;DHT22;62136;-35.664;-63.766;2022-11-15T08:33:04;22.40;49.70
59975;DHT22;62136;-35.664;-63.766;2022-11-15T08:35:31;22.40;49.40
59975;DHT22;62136;-35.664;-63.766;2022-11-15T08:37:58;22.40;49.70
59975;DHT22;62136;-35.664;-63.766;2022-11-15T08:40:25;22.40;49.80
59975;DHT22;62136;-35.664;-63.766;2022-11-15T08:42:53;22.40;49.80
59975;DHT22;62136;-35.664;-63.766;2022-11-15T08:45:20;22.40;49.80
59975;DHT22;62136;-35.664;-63.766;2022-11-15T08:47:48;22.30;49.90
59975;DHT22;62136;-35.664;-63.766;2022-11-15T08:50:15;22.30;49.90
59975;DHT22;62136;-35.664;-63.766;2022-11-15T08:52:42;22.30;49.80
59975;DHT22;62136;-35.664;-63.766;2022-11-15T08:55:09;22.30;49.80
59975;DHT22;62136;-35.664;-63.766;2022-11-15T08:57:36;22.30;49.80
59975;DHT22;62136;-35.664;-63.766;2022-11-15T09:00:04;22.30;49.80
59975;DHT22;62136;-35.664;-63.766;2022-11-15T09:02:31;22.30;49.80
59975;DHT22;62136;-35.664;-63.766;2022-11-15T09:04:58;22.30;49.80
59975;DHT22;62136;-35.664;-63.766;2022-11-15T09:07:25;22.30;49.80
59975;DHT22;62136;-35.664;-63.766;2022-11-15T09:09:52;22.30;49.90
59975;DHT22;62136;-35.664;-63.766;2022-11-15T09:12:19;22.20;49.80
59975;DHT22;62136;-35.664;-63.766;2022-11-15T09:14:46;22.20;49.80
59975;DHT22;62136;-35.664;-63.766;2022-11-15T09:17:13;22.20;49.80
59975;DHT22;62136;-35.664;-63.766;2022-11-15T09:19:40;22.20;49.80
59975;DHT22;62136;-35.664;-63.766;2022-11-15T09:22:08;22.20;49.80
59975;DHT22;62136;-35.664;-63.766;2022-11-15T09:24:35;22.20;50.00
59975;DHT22;62136;-35.664;-63.766;2022-11-15T09:27:03;22.20;49.90
59975;DHT22;62136;-35.664;-63.766;2022-11-15T09:29:30;22.20;49.90
59975;DHT22;62136;-35.664;-63.766;2022-11-15T09:31:57;22.20;50.10
59975;DHT22;62136;-35.664;-63.766;2022-11-15T09:34:24;22.20;49.90
59975;DHT22;62136;-35.664;-63.766;2022-11-15T09:36:51;22.20;49.90
59975;DHT22;62136;-35.664;-63.766;2022-11-15T09:39:18;22.20;49.90
59975;DHT22;62136;-35.664;-63.766;2022-11-15T09:42:10;22.20;49.80
59975;DHT22;62136;-35.664;-63.766;2022-11-15T09:45:26;22.20;49.90
59975;DHT22;62136;-35.664;-63.766;2022-11-15T09:50:22;22.20;49.90
59975;DHT22;62136;-35.664;-63.766;2022-11-15T09:52:55;22.20;49.90
59975;DHT22;62136;-35.664;-63.766;2022-11-15T09:55:32;22.10;49.80
59975;DHT22;62136;-35.664;-63.766;2022-11-15T09:58:16;22.20;50.00
59975;DHT22;62136;-35.664;-63.766;2022-11-15T10:00:49;22.20;49.90
59975;DHT22;62136;-35.664;-63.766;2022-11-15T10:03:33;22.20;49.90
59975;DHT22;62136;-35.664;-63.766;2022-11-15T10:06:04;22.20;49.80
59975;DHT22;62136;-35.664;-63.766;2022-11-15T10:08:50;22.30;49.70
59975;DHT22;62136;-35.664;-63.766;2022-11-15T10:11:26;22.40;49.40
59975;DHT22;62136;-35.664;-63.766;2022-11-15T10:16:57;22.70;49.00
59975;DHT22;62136;-35.664;-63.766;2022-11-15T10:20:16;22.70;48.70
59975;DHT22;62136;-35.664;-63.766;2022-11-15T10:22:48;22.70;48.60
59975;DHT22;62136;-35.664;-63.766;2022-11-15T10:25:19;22.70;48.80
59975;DHT22;62136;-35.664;-63.766;2022-11-15T10:27:56;22.60;48.90
59975;DHT22;62136;-35.664;-63.766;2022-11-15T10:30:32;22.60;49.10
59975;DHT22;62136;-35.664;-63.766;2022-11-15T10:33:13;22.50;49.10
59975;DHT22;62136;-35.664;-63.766;2022-11-15T10:35:43;22.50;49.30
59975;DHT22;62136;-35.664;-63.766;2022-11-15T10:38:11;22.50;49.40
59975;DHT22;62136;-35.664;-63.766;2022-11-15T10:40:40;22.50;49.30
59975;DHT22;62136;-35.664;-63.766;2022-11-15T10:45:40;22.50;49.30
59975;DHT22;62136;-35.664;-63.766;2022-11-15T10:50:45;22.50;49.30
59975;DHT22;62136;-35.664;-63.766;2022-11-15T10:53:26;22.50;49.40
59975;DHT22;62136;-35.664;-63.766;2022-11-15T10:56:11;22.60;49.30
59975;DHT22;62136;-35.664;-63.766;2022-11-15T10:58:42;22.60;49.20
59975;DHT22;62136;-35.664;-63.766;2022-11-15T11:01:30;22.60;49.20
59975;DHT22;62136;-35.664;-63.766;2022-11-15T11:04:08;22.60;49.20
59975;DHT22;62136;-35.664;-63.766;2022-11-15T11:06:57;22.70;49.50
59975;DHT22;62136;-35.664;-63.766;2022-11-15T11:09:40;22.70;49.30
59975;DHT22;62136;-35.664;-63.766;2022-11-15T11:12:12;22.70;49.70
59975;DHT22;62136;-35.664;-63.766;2022-11-15T11:14:40;22.70;50.80
59975;DHT22;62136;-35.664;-63.766;2022-11-15T11:23:11;22.80;52.20
59975;DHT22;62136;-35.664;-63.766;2022-11-15T11:28:42;23.00;53.70
59975;DHT22;62136;-35.664;-63.766;2022-11-15T11:36:57;23.20;55.50
59975;DHT22;62136;-35.664;-63.766;2022-11-15T11:42:59;23.30;56.20
59975;DHT22;62136;-35.664;-63.766;2022-11-15T11:50:45;23.60;56.60
59975;DHT22;62136;-35.664;-63.766;2022-11-15T11:54:12;23.70;56.40
59975;DHT22;62136;-35.664;-63.766;2022-11-15T11:56:31;23.80;56.20
59975;DHT22;62136;-35.664;-63.766;2022-11-15T11:59:05;23.90;56.10
59975;DHT22;62136;-35.664;-63.766;2022-11-15T12:01:40;23.90;55.90
59975;DHT22;62136;-35.664;-63.766;2022-11-15T12:04:21;24.00;55.40
59975;DHT22;62136;-35.664;-63.766;2022-11-15T12:15:42;24.30;54.90
59975;DHT22;62136;-35.664;-63.766;2022-11-15T12:18:14;24.40;54.60
59975;DHT22;62136;-35.664;-63.766;2022-11-15T12:20:51;24.50;55.10
59975;DHT22;62136;-35.664;-63.766;2022-11-15T12:23:28;24.60;54.30
59975;DHT22;62136;-35.664;-63.766;2022-11-15T12:26:09;24.70;54.30
59975;DHT22;62136;-35.664;-63.766;2022-11-15T12:29:01;24.70;54.20
59975;DHT22;62136;-35.664;-63.766;2022-11-15T12:31:39;24.90;53.90
59975;DHT22;62136;-35.664;-63.766;2022-11-15T12:36:48;25.00;53.60
59975;DHT22;62136;-35.664;-63.766;2022-11-15T12:39:16;25.10;53.60
59975;DHT22;62136;-35.664;-63.766;2022-11-15T12:47:25;25.10;53.30
59975;DHT22;62136;-35.664;-63.766;2022-11-15T12:49:52;24.90;51.80
59975;DHT22;62136;-35.664;-63.766;2022-11-15T12:52:20;24.80;52.90
59975;DHT22;62136;-35.664;-63.766;2022-11-15T12:54:55;24.60;51.50
59975;DHT22;62136;-35.664;-63.766;2022-11-15T12:57:31;24.50;51.40
59975;DHT22;62136;-35.664;-63.766;2022-11-15T13:00:01;24.40;53.50
59975;DHT22;62136;-35.664;-63.766;2022-11-15T13:02:45;24.30;52.30
59975;DHT22;62136;-35.664;-63.766;2022-11-15T13:13:06;24.00;53.20
59975;DHT22;62136;-35.664;-63.766;2022-11-15T13:16:00;24.00;53.30
59975;DHT22;62136;-35.664;-63.766;2022-11-15T13:18:38;24.00;54.10
59975;DHT22;62136;-35.664;-63.766;2022-11-15T13:21:23;23.90;52.70
59975;DHT22;62136;-35.664;-63.766;2022-11-15T13:24:13;23.90;53.00
59975;DHT22;62136;-35.664;-63.766;2022-11-15T13:26:43;23.90;53.30
59975;DHT22;62136;-35.664;-63.766;2022-11-15T13:29:16;23.90;52.80
59975;DHT22;62136;-35.664;-63.766;2022-11-15T13:31:45;23.90;52.30
59975;DHT22;62136;-35.664;-63.766;2022-11-15T13:34:32;23.90;53.10
59975;DHT22;62136;-35.664;-63.766;2022-11-15T13:37:03;23.90;53.40
59975;DHT22;62136;-35.664;-63.766;2022-11-15T13:39:32;23.90;52.90
59975;DHT22;62136;-35.664;-63.766;2022-11-15T13:42:00;23.90;53.70
59975;DHT22;62136;-35.664;-63.766;2022-11-15T13:44:30;23.90;53.30
59975;DHT22;62136;-35.664;-63.766;2022-11-15T13:47:03;23.90;52.20
59975;DHT22;62136;-35.664;-63.766;2022-11-15T13:49:32;23.90;53.10
59975;DHT22;62136;-35.664;-63.766;2022-11-15T13:52:00;23.90;52.00
59975;DHT22;62136;-35.664;-63.766;2022-11-15T13:54:40;23.90;52.90
59975;DHT22;62136;-35.664;-63.766;2022-11-15T13:57:12;23.90;51.80
59975;DHT22;62136;-35.664;-63.766;2022-11-15T14:00:01;23.90;51.00
59975;DHT22;62136;-35.664;-63.766;2022-11-15T14:02:35;23.90;51.40
59975;DHT22;62136;-35.664;-63.766;2022-11-15T14:05:23;23.90;50.70
59975;DHT22;62136;-35.664;-63.766;2022-11-15T14:08:20;23.90;50.70
59975;DHT22;62136;-35.664;-63.766;2022-11-15T14:10:49;23.90;50.00
59975;DHT22;62136;-35.664;-63.766;2022-11-15T14:13:32;23.90;49.40
59975;DHT22;62136;-35.664;-63.766;2022-11-15T14:16:20;23.90;50.10
59975;DHT22;62136;-35.664;-63.766;2022-11-15T14:18:52;23.90;49.50
59975;DHT22;62136;-35.664;-63.766;2022-11-15T14:21:20;23.90;49.80
59975;DHT22;62136;-35.664;-63.766;2022-11-15T14:23:47;23.90;49.50
59975;DHT22;62136;-35.664;-63.766;2022-11-15T14:26:34;23.90;49.20
59975;DHT22;62136;-35.664;-63.766;2022-11-15T14:29:24;23.90;49.10
59975;DHT22;62136;-35.664;-63.766;2022-11-15T14:31:52;23.90;47.70
59975;DHT22;62136;-35.664;-63.766;2022-11-15T14:34:19;23.90;47.90
59975;DHT22;62136;-35.664;-63.766;2022-11-15T14:36:48;23.90;47.70
59975;DHT22;62136;-35.664;-63.766;2022-11-15T14:39:15;24.00;47.90
59975;DHT22;62136;-35.664;-63.766;2022-11-15T14:41:42;24.00;48.10
59975;DHT22;62136;-35.664;-63.766;2022-11-15T14:44:11;24.00;47.80
59975;DHT22;62136;-35.664;-63.766;2022-11-15T14:46:38;24.10;47.20
59975;DHT22;62136;-35.664;-63.766;2022-11-15T14:49:06;24.10;47.50
59975;DHT22;62136;-35.664;-63.766;2022-11-15T14:51:33;24.10;47.30
59975;DHT22;62136;-35.664;-63.766;2022-11-15T14:54:00;24.10;47.10
59975;DHT22;62136;-35.664;-63.766;2022-11-15T14:56:27;24.20;47.20
59975;DHT22;62136;-35.664;-63.766;2022-11-15T14:58:54;24.30;46.50
59975;DHT22;62136;-35.664;-63.766;2022-11-15T15:01:23;24.30;46.30
59975;DHT22;62136;-35.664;-63.766;2022-11-15T15:03:53;24.30;46.40
59975;DHT22;62136;-35.664;-63.766;2022-11-15T15:06:24;24.40;46.60
59975;DHT22;62136;-35.664;-63.766;2022-11-15T15:08:51;24.50;47.10
59975;DHT22;62136;-35.664;-63.766;2022-11-15T15:11:29;24.50;46.50
59975;DHT22;62136;-35.664;-63.766;2022-11-15T15:13:57;24.50;46.10
59975;DHT22;62136;-35.664;-63.766;2022-11-15T15:16:27;24.50;46.30
59975;DHT22;62136;-35.664;-63.766;2022-11-15T15:18:55;24.50;46.40
59975;DHT22;62136;-35.664;-63.766;2022-11-15T15:21:27;24.60;46.70
59975;DHT22;62136;-35.664;-63.766;2022-11-15T15:23:55;24.50;46.00
59975;DHT22;62136;-35.664;-63.766;2022-11-15T15:26:23;24.50;46.10
59975;DHT22;62136;-35.664;-63.766;2022-11-15T15:28:50;24.60;46.50
59975;DHT22;62136;-35.664;-63.766;2022-11-15T15:31:18;24.60;46.50
59975;DHT22;62136;-35.664;-63.766;2022-11-15T15:33:45;24.70;46.10
59975;DHT22;62136;-35.664;-63.766;2022-11-15T15:36:14;24.70;45.70
59975;DHT22;62136;-35.664;-63.766;2022-11-15T15:38:42;24.70;45.30
59975;DHT22;62136;-35.664;-63.766;2022-11-15T15:41:13;24.70;45.60
59975;DHT22;62136;-35.664;-63.766;2022-11-15T15:43:41;24.80;45.00
59975;DHT22;62136;-35.664;-63.766;2022-11-15T15:46:13;24.80;45.60
59975;DHT22;62136;-35.664;-63.766;2022-11-15T15:48:41;24.80;45.10
59975;DHT22;62136;-35.664;-63.766;2022-11-15T15:51:09;24.80;45.30
59975;DHT22;62136;-35.664;-63.766;2022-11-15T15:53:36;24.80;45.20
59975;DHT22;62136;-35.664;-63.766;2022-11-15T15:56:03;24.80;45.30
59975;DHT22;62136;-35.664;-63.766;2022-11-15T15:58:31;24.80;44.70
59975;DHT22;62136;-35.664;-63.766;2022-11-15T16:00:58;24.70;45.00
59975;DHT22;62136;-35.664;-63.766;2022-11-15T16:03:25;24.80;44.90
59975;DHT22;62136;-35.664;-63.766;2022-11-15T16:05:53;24.70;45.30
59975;DHT22;62136;-35.664;-63.766;2022-11-15T16:08:23;24.80;44.80
59975;DHT22;62136;-35.664;-63.766;2022-11-15T16:10:51;24.70;44.70
59975;DHT22;62136;-35.664;-63.766;2022-11-15T16:13:18;24.70;45.50
59975;DHT22;62136;-35.664;-63.766;2022-11-15T16:15:48;24.70;43.90
59975;DHT22;62136;-35.664;-63.766;2022-11-15T16:18:17;24.60;43.60
59975;DHT22;62136;-35.664;-63.766;2022-11-15T16:20:49;24.70;43.10
59975;DHT22;62136;-35.664;-63.766;2022-11-15T16:23:19;24.70;44.50
59975;DHT22;62136;-35.664;-63.766;2022-11-15T16:25:55;24.60;44.00
59975;DHT22;62136;-35.664;-63.766;2022-11-15T16:28:27;24.70;43.60
59975;DHT22;62136;-35.664;-63.766;2022-11-15T16:31:12;24.60;42.20
59975;DHT22;62136;-35.664;-63.766;2022-11-15T16:33:39;24.60;42.30
59975;DHT22;62136;-35.664;-63.766;2022-11-15T16:36:20;24.60;42.70
59975;DHT22;62136;-35.664;-63.766;2022-11-15T16:38:48;24.60;42.70